Terminal Aerodrome Forecast
Issued by NWS Cleveland, OH

Home | Current Version | Previous Version | Text Only | Print | Product List | Glossary On
Versions: 1 2 3 4 5 6 7 8 9 10 11 12 13 14 15 16 17 18
306
FTUS41 KCLE 212335
TAFERI
TAF
KERI 212335Z 2200/2224 22012G22KT P6SM OVC250
     FM220300 26009KT P6SM OVC050
      TEMPO 2203/2206 -SHRA OVC025
     FM220600 30010G18KT 3SM -SHRASN OVC025
     FM221000 30010KT P6SM -SHSN OVC025
     FM221600 31008KT P6SM BKN035=

USA.gov is the U.S. government's official web portal to all federal, state and local government web resources and services.